Time;durP1;ratioP1;P1;durP2;ratioP2;P2;SDS_P1;SDS_P2;PMS_P1;PMS_P2;Temp;Humidity;BMP_temperature;BMP_pressure;BME280_temperature;BME280_humidity;BME280_pressure;Samples;Min_cycle;Max_cycle;Signal;HPM_P1;HPM_P2
2022/01/17 00:04:57;;;;;;;28.63;18.73;;;4.00;99.90;;;;;;10341633;28;20226;-75
2022/01/17 00:09:59;;;;;;;31.10;19.53;;;4.10;99.90;;;;;;10357482;28;20599;-74
2022/01/17 00:15:00;;;;;;;28.40;19.00;;;4.10;99.90;;;;;;10341995;28;20263;-75
2022/01/17 00:20:10;;;;;;;27.50;18.17;;;4.10;99.90;;;;;;10323063;28;20328;-76
2022/01/17 00:25:10;;;;;;;29.00;19.47;;;4.10;99.90;;;;;;10357108;28;20253;-75
2022/01/17 00:30:11;;;;;;;28.13;18.73;;;4.10;99.90;;;;;;10366298;28;20235;-75
2022/01/17 00:35:12;;;;;;;29.53;19.47;;;4.10;99.90;;;;;;10365499;28;20240;-75
2022/01/17 00:40:13;;;;;;;30.97;20.30;;;4.10;99.90;;;;;;10355256;28;20181;-75
2022/01/17 00:45:15;;;;;;;31.17;19.97;;;4.10;99.90;;;;;;10339762;28;20194;-74
2022/01/17 00:50:15;;;;;;;31.73;20.13;;;4.10;99.90;;;;;;10347425;28;20209;-74
2022/01/17 00:55:16;;;;;;;32.70;20.83;;;4.10;99.90;;;;;;10354130;28;20277;-75
2022/01/17 01:00:17;;;;;;;33.17;20.63;;;4.10;99.90;;;;;;10354479;28;20189;-75
2022/01/17 01:05:18;;;;;;;34.07;20.37;;;4.10;99.90;;;;;;10346167;28;20199;-77
2022/01/17 01:10:18;;;;;;;34.50;21.63;;;4.10;99.90;;;;;;10356151;28;20193;-75
2022/01/17 01:15:33;;;;;;;32.00;21.30;;;4.00;99.90;;;;;;10339357;28;20218;-75
2022/01/17 01:31:06;;;;;;;33.03;20.97;;;4.10;99.90;;;;;;10346176;28;20293;-76
2022/01/17 01:36:14;;;;;;;35.07;21.77;;;4.00;99.90;;;;;;10345957;28;20876;-75
2022/01/17 01:41:15;;;;;;;32.60;20.13;;;4.00;99.90;;;;;;10363190;28;20764;-76
2022/01/17 01:46:19;;;;;;;33.43;21.70;;;4.10;99.90;;;;;;10362733;28;20232;-76
2022/01/17 01:51:20;;;;;;;31.83;19.93;;;4.00;99.90;;;;;;10365167;28;20619;-76
2022/01/17 01:56:21;;;;;;;29.27;18.73;;;4.10;99.90;;;;;;10347724;28;20234;-76
2022/01/17 02:01:22;;;;;;;32.20;19.50;;;4.10;99.90;;;;;;10346433;28;20221;-75
2022/01/17 02:06:23;;;;;;;30.73;20.17;;;4.10;99.90;;;;;;10330791;28;20230;-75
2022/01/17 02:11:24;;;;;;;30.13;18.23;;;4.10;99.90;;;;;;10344807;28;20253;-74
2022/01/17 02:16:26;;;;;;;28.70;18.10;;;4.10;99.90;;;;;;10341536;28;20261;-74
2022/01/17 02:21:34;;;;;;;29.07;18.17;;;4.10;99.90;;;;;;10350836;28;20237;-74
2022/01/17 02:26:35;;;;;;;28.30;18.33;;;4.20;99.90;;;;;;10340090;28;20376;-75
2022/01/17 02:31:36;;;;;;;30.20;18.37;;;4.20;99.90;;;;;;10350659;28;20318;-76
2022/01/17 02:36:37;;;;;;;26.53;17.37;;;4.20;99.90;;;;;;10355141;28;20236;-74
2022/01/17 02:41:39;;;;;;;28.53;17.77;;;4.20;99.90;;;;;;10337781;28;20228;-73
2022/01/17 02:46:40;;;;;;;26.87;17.47;;;4.20;99.90;;;;;;10346303;28;20261;-74
2022/01/17 02:51:43;;;;;;;24.97;17.23;;;4.20;99.90;;;;;;10355740;28;20225;-74
2022/01/17 02:56:45;;;;;;;27.43;16.67;;;4.10;99.90;;;;;;10368308;28;20475;-76
2022/01/17 03:01:46;;;;;;;24.17;16.27;;;4.10;99.90;;;;;;10345937;28;20232;-75
2022/01/17 03:06:46;;;;;;;24.17;16.10;;;4.20;99.90;;;;;;10359263;28;20644;-77
2022/01/17 03:11:47;;;;;;;26.17;16.30;;;4.10;99.90;;;;;;10368161;28;20752;-74
2022/01/17 03:16:49;;;;;;;23.37;15.83;;;4.10;99.90;;;;;;10353891;28;20233;-75
2022/01/17 03:21:50;;;;;;;28.40;17.13;;;4.10;99.90;;;;;;10349243;28;20225;-75
2022/01/17 03:26:54;;;;;;;25.23;16.47;;;4.10;99.90;;;;;;10351040;28;20312;-74
2022/01/17 03:31:55;;;;;;;26.87;17.33;;;4.10;99.90;;;;;;10343045;28;20256;-75
2022/01/17 03:36:55;;;;;;;24.20;17.07;;;4.00;99.90;;;;;;10364259;28;20310;-75
2022/01/17 03:41:56;;;;;;;26.10;17.70;;;4.00;99.90;;;;;;10350933;28;20260;-75
2022/01/17 03:46:57;;;;;;;27.17;17.33;;;4.00;99.90;;;;;;10335950;28;20229;-74
2022/01/17 03:51:58;;;;;;;29.50;16.80;;;4.00;99.90;;;;;;10340559;28;20244;-75
2022/01/17 03:56:59;;;;;;;24.73;16.43;;;4.00;99.90;;;;;;10357497;28;20224;-75
2022/01/17 04:01:59;;;;;;;27.13;16.67;;;4.00;99.90;;;;;;10344369;28;20283;-75
2022/01/17 04:07:00;;;;;;;24.50;15.73;;;4.00;99.90;;;;;;10358149;28;20322;-74
2022/01/17 04:12:01;;;;;;;23.70;14.67;;;4.00;99.90;;;;;;10349931;28;20261;-74
2022/01/17 04:17:05;;;;;;;22.50;14.87;;;4.00;99.90;;;;;;10349666;28;20237;-75
2022/01/17 04:22:05;;;;;;;22.20;14.50;;;3.90;99.90;;;;;;10356641;28;20225;-75
2022/01/17 04:27:06;;;;;;;22.43;15.17;;;4.00;99.90;;;;;;10354776;28;20239;-74
2022/01/17 04:32:07;;;;;;;20.90;14.40;;;4.00;99.90;;;;;;10356170;28;20697;-75
2022/01/17 04:37:09;;;;;;;21.10;12.83;;;4.00;99.90;;;;;;10337992;28;20232;-75
2022/01/17 04:42:12;;;;;;;20.93;13.70;;;4.00;99.90;;;;;;10349040;28;20225;-74
2022/01/17 04:47:16;;;;;;;18.33;11.87;;;4.00;99.90;;;;;;10346107;28;20238;-75
2022/01/17 04:52:16;;;;;;;19.67;12.30;;;4.10;99.90;;;;;;10357843;28;20221;-74
2022/01/17 04:57:18;;;;;;;20.50;12.27;;;4.10;99.90;;;;;;10359011;28;20233;-75
2022/01/17 05:02:18;;;;;;;17.13;11.03;;;4.10;99.90;;;;;;10331891;28;20278;-75
2022/01/17 05:07:19;;;;;;;17.40;11.77;;;4.10;99.90;;;;;;10359183;28;20711;-74
2022/01/17 05:12:24;;;;;;;16.33;12.00;;;4.10;99.90;;;;;;10350448;28;20575;-75
2022/01/17 05:22:34;;;;;;;20.10;11.90;;;4.10;99.90;;;;;;10341161;28;20319;-75
2022/01/17 05:27:36;;;;;;;18.83;12.40;;;4.10;99.90;;;;;;10363312;28;20221;-75
2022/01/17 05:32:37;;;;;;;16.47;11.63;;;4.10;99.90;;;;;;10353653;28;20228;-72
2022/01/17 05:37:38;;;;;;;17.17;11.10;;;4.10;99.90;;;;;;10355686;28;20769;-73
2022/01/17 05:42:40;;;;;;;16.47;11.23;;;4.20;99.90;;;;;;10358508;28;20308;-75
2022/01/17 05:47:41;;;;;;;17.53;11.30;;;4.20;99.90;;;;;;10387529;28;20240;-75
2022/01/17 05:52:42;;;;;;;17.50;11.43;;;4.20;99.90;;;;;;10358238;28;20218;-75
2022/01/17 05:57:43;;;;;;;21.80;13.13;;;4.20;99.90;;;;;;10368446;28;20240;-77
2022/01/17 06:02:44;;;;;;;18.13;12.43;;;4.10;99.90;;;;;;10341894;28;20622;-74
2022/01/17 06:07:45;;;;;;;21.37;13.43;;;4.10;99.90;;;;;;10340634;28;20220;-74
2022/01/17 06:12:45;;;;;;;30.37;17.93;;;4.00;99.90;;;;;;10353903;28;20232;-75
2022/01/17 06:17:46;;;;;;;28.53;16.67;;;3.80;99.90;;;;;;10345112;28;20233;-76
2022/01/17 06:22:47;;;;;;;21.17;14.10;;;3.70;99.90;;;;;;10350338;28;20221;-76
2022/01/17 06:27:47;;;;;;;20.07;12.77;;;3.60;99.90;;;;;;10363986;28;20216;-75
2022/01/17 06:32:48;;;;;;;21.73;12.53;;;3.60;99.90;;;;;;10379843;28;20605;-76
2022/01/17 06:37:48;;;;;;;17.97;12.20;;;3.60;99.90;;;;;;10350248;28;20241;-75
2022/01/17 06:42:52;;;;;;;18.33;11.67;;;3.70;99.90;;;;;;10351684;28;20345;-75
2022/01/17 06:47:53;;;;;;;20.30;13.20;;;3.70;99.90;;;;;;10343753;28;20709;-75
2022/01/17 06:52:53;;;;;;;18.90;12.60;;;3.90;99.90;;;;;;10358485;28;20315;-76
2022/01/17 06:57:54;;;;;;;19.17;11.53;;;3.90;99.90;;;;;;10343033;28;20233;-75
2022/01/17 07:02:55;;;;;;;21.53;13.23;;;3.90;99.90;;;;;;10349573;28;20217;-74
2022/01/17 07:07:56;;;;;;;22.27;13.90;;;4.00;99.90;;;;;;10342201;28;20230;-75
2022/01/17 07:12:57;;;;;;;24.67;13.97;;;4.00;99.90;;;;;;10348894;28;20596;-75
2022/01/17 07:17:57;;;;;;;20.33;12.00;;;4.00;99.90;;;;;;10359278;28;20230;-75
2022/01/17 07:22:58;;;;;;;25.37;14.07;;;4.00;99.90;;;;;;10358552;28;20225;-74
2022/01/17 07:27:58;;;;;;;19.67;12.50;;;4.00;99.90;;;;;;10356078;28;20306;-75
2022/01/17 07:33:03;;;;;;;20.60;12.87;;;4.00;99.90;;;;;;10340882;28;20263;-75
2022/01/17 07:38:05;;;;;;;21.10;13.03;;;4.00;99.90;;;;;;10359131;28;20636;-76
2022/01/17 07:43:08;;;;;;;21.60;13.00;;;4.00;99.90;;;;;;10350379;28;20229;-74
2022/01/17 07:48:32;;;;;;;19.13;13.03;;;4.00;99.90;;;;;;10357038;28;20237;-74
2022/01/17 07:53:29;;;;;;;19.63;11.60;;;4.10;99.90;;;;;;10351545;28;20273;-75
2022/01/17 07:58:30;;;;;;;17.30;11.83;;;4.10;99.90;;;;;;10363214;28;20624;-75
2022/01/17 08:03:31;;;;;;;23.37;12.83;;;4.10;99.90;;;;;;10357478;28;20267;-77
2022/01/17 08:08:32;;;;;;;19.37;11.70;;;4.20;99.90;;;;;;10336419;28;20233;-75
2022/01/17 08:13:32;;;;;;;18.97;12.13;;;4.20;99.90;;;;;;10368594;28;20220;-76
2022/01/17 08:18:36;;;;;;;18.10;11.73;;;4.30;99.90;;;;;;10366212;28;20261;-76
2022/01/17 08:23:37;;;;;;;21.10;12.03;;;4.30;99.90;;;;;;10360847;28;20222;-74
2022/01/17 08:28:37;;;;;;;16.77;10.93;;;4.40;99.90;;;;;;10345387;28;20209;-74
2022/01/17 08:33:38;;;;;;;15.93;11.13;;;4.50;99.90;;;;;;10332534;28;20756;-75
2022/01/17 08:38:40;;;;;;;16.40;11.50;;;4.60;99.90;;;;;;10350292;28;20244;-74
2022/01/17 08:43:40;;;;;;;17.57;11.10;;;4.60;99.90;;;;;;10350744;28;20234;-75
2022/01/17 08:48:41;;;;;;;16.93;11.63;;;4.70;99.90;;;;;;10353431;28;20320;-75
2022/01/17 08:53:42;;;;;;;17.33;10.90;;;4.80;99.90;;;;;;10358644;28;20332;-75
2022/01/17 08:58:43;;;;;;;19.10;11.10;;;4.80;99.90;;;;;;10353516;28;20335;-76
2022/01/17 09:03:43;;;;;;;16.07;10.47;;;4.90;99.90;;;;;;10354349;28;20279;-77
2022/01/17 09:08:44;;;;;;;17.80;11.07;;;5.00;99.90;;;;;;10362534;28;20300;-76
2022/01/17 09:13:47;;;;;;;17.50;11.23;;;5.00;99.90;;;;;;10341466;28;20252;-77
2022/01/17 09:18:48;;;;;;;16.83;10.87;;;5.00;99.90;;;;;;10346520;28;20233;-77
2022/01/17 09:23:50;;;;;;;17.43;11.07;;;5.00;99.90;;;;;;10353022;28;20232;-75
2022/01/17 09:28:51;;;;;;;17.33;10.70;;;5.00;99.90;;;;;;10353806;28;20212;-75
2022/01/17 09:33:51;;;;;;;17.50;11.40;;;4.90;99.90;;;;;;10337081;28;20341;-75
2022/01/17 09:38:52;;;;;;;18.03;10.97;;;4.90;99.90;;;;;;10344823;28;20272;-76
2022/01/17 09:43:53;;;;;;;15.97;10.13;;;5.00;99.90;;;;;;10351420;28;20241;-76
2022/01/17 09:49:01;;;;;;;16.23;9.73;;;5.00;99.90;;;;;;10343865;28;20321;-76
2022/01/17 09:54:04;;;;;;;15.87;9.97;;;5.10;99.90;;;;;;10352998;28;20695;-76
2022/01/17 09:59:05;;;;;;;13.63;9.70;;;5.20;99.90;;;;;;10345545;28;20244;-76
2022/01/17 10:04:07;;;;;;;14.47;9.07;;;5.30;99.90;;;;;;10336195;28;20318;-75
2022/01/17 10:09:21;;;;;;;13.73;9.30;;;5.40;99.90;;;;;;10334563;28;20309;-75
2022/01/17 10:14:27;;;;;;;15.90;10.37;;;5.50;99.90;;;;;;10353502;28;20229;-76
2022/01/17 10:19:30;;;;;;;14.37;9.70;;;5.60;99.90;;;;;;10364849;28;20213;-77
2022/01/17 10:34:54;;;;;;;15.73;9.93;;;5.90;99.90;;;;;;10356912;28;20253;-74
2022/01/17 10:40:07;;;;;;;12.73;8.97;;;6.00;99.90;;;;;;10353583;28;20298;-74
2022/01/17 10:45:15;;;;;;;12.57;9.00;;;6.00;99.90;;;;;;10351056;28;20233;-75
2022/01/17 10:50:20;;;;;;;15.07;9.70;;;6.10;99.90;;;;;;10341968;28;20229;-74
2022/01/17 10:55:34;;;;;;;15.50;9.50;;;6.20;99.90;;;;;;10347615;28;20209;-74
2022/01/17 11:00:38;;;;;;;15.77;10.10;;;6.20;99.90;;;;;;10345141;28;20221;-73
2022/01/17 11:05:41;;;;;;;16.80;10.50;;;6.30;99.90;;;;;;10365520;28;20229;-74
2022/01/17 11:10:44;;;;;;;15.27;9.40;;;6.30;99.90;;;;;;10360010;28;20373;-74
2022/01/17 11:15:49;;;;;;;14.60;9.77;;;6.20;99.90;;;;;;10342071;28;20237;-74
2022/01/17 11:20:53;;;;;;;17.13;10.30;;;6.10;99.90;;;;;;10356752;28;20225;-74
2022/01/17 11:25:55;;;;;;;16.63;10.23;;;6.10;99.90;;;;;;10350800;28;20236;-74
2022/01/17 11:30:59;;;;;;;16.73;9.63;;;6.20;99.90;;;;;;10366850;28;20225;-74
2022/01/17 11:35:59;;;;;;;12.93;8.73;;;6.30;99.90;;;;;;10359410;28;20249;-75
2022/01/17 11:41:01;;;;;;;11.60;7.83;;;6.50;99.90;;;;;;10370038;28;20781;-74
2022/01/17 11:46:17;;;;;;;11.10;7.43;;;6.90;99.90;;;;;;10361998;28;20271;-74
2022/01/17 11:51:20;;;;;;;11.67;8.07;;;7.20;99.90;;;;;;10351796;28;20229;-74
2022/01/17 11:56:40;;;;;;;11.53;7.50;;;7.30;99.90;;;;;;10354609;28;20233;-74
2022/01/17 12:01:40;;;;;;;10.83;7.57;;;7.60;99.90;;;;;;10344217;28;20233;-74
2022/01/17 12:06:41;;;;;;;9.57;7.43;;;7.70;99.90;;;;;;10344469;28;20784;-74
2022/01/17 12:11:42;;;;;;;14.90;7.90;;;7.90;99.90;;;;;;10368971;28;20273;-75
2022/01/17 12:16:43;;;;;;;11.43;7.30;;;8.30;99.90;;;;;;10372062;28;20292;-75
2022/01/17 12:21:56;;;;;;;10.60;6.87;;;8.50;99.90;;;;;;10347164;28;20294;-74
2022/01/17 12:27:03;;;;;;;10.50;6.60;;;8.60;99.90;;;;;;10358980;28;20600;-75
2022/01/17 12:32:19;;;;;;;8.53;6.60;;;8.80;99.90;;;;;;10337403;28;20239;-74
2022/01/17 12:37:40;;;;;;;8.80;6.00;;;8.50;99.90;;;;;;10354516;28;20269;-74
2022/01/17 12:42:59;;;;;;;9.00;6.30;;;8.10;99.90;;;;;;10351538;28;20542;-74
2022/01/17 12:48:03;;;;;;;9.33;6.90;;;7.90;99.90;;;;;;10362518;28;20743;-74
2022/01/17 12:53:06;;;;;;;9.80;6.60;;;7.60;99.90;;;;;;10370625;28;20225;-74
2022/01/17 12:58:16;;;;;;;10.50;7.27;;;7.50;99.90;;;;;;10328389;28;20269;-74
2022/01/17 13:03:19;;;;;;;11.57;7.73;;;7.30;99.90;;;;;;10353747;28;20225;-74
2022/01/17 13:08:26;;;;;;;11.13;8.07;;;7.20;99.90;;;;;;10347457;28;20226;-74
2022/01/17 13:13:26;;;;;;;11.57;7.80;;;7.20;99.90;;;;;;10349678;28;20278;-74
2022/01/17 13:18:29;;;;;;;11.77;6.30;;;7.10;99.90;;;;;;10338949;28;20244;-74
2022/01/17 13:23:43;;;;;;;7.90;5.07;;;7.10;99.90;;;;;;10354139;28;20238;-73
2022/01/17 13:28:52;;;;;;;7.97;5.37;;;7.20;99.90;;;;;;10350021;28;20229;-73
2022/01/17 13:33:53;;;;;;;8.07;4.93;;;7.40;99.90;;;;;;10348952;28;20228;-73
2022/01/17 13:39:06;;;;;;;8.50;4.97;;;7.50;99.90;;;;;;10353086;28;20241;-73
2022/01/17 13:44:09;;;;;;;6.63;5.23;;;7.50;99.90;;;;;;10318845;28;20240;-73
2022/01/17 13:49:10;;;;;;;7.47;4.70;;;7.50;99.90;;;;;;10352323;28;20241;-73
2022/01/17 13:54:10;;;;;;;5.47;4.87;;;7.50;99.90;;;;;;10327151;28;20717;-73
2022/01/17 13:59:14;;;;;;;7.13;5.43;;;7.40;99.90;;;;;;10351085;28;20332;-73
2022/01/17 14:04:25;;;;;;;6.53;5.20;;;7.30;99.90;;;;;;10351816;28;20307;-74
2022/01/17 14:09:33;;;;;;;9.63;5.37;;;7.20;99.90;;;;;;10345199;28;20637;-73
2022/01/17 14:14:34;;;;;;;7.50;5.33;;;7.20;99.90;;;;;;10352321;28;20292;-74
2022/01/17 14:19:35;;;;;;;8.97;6.10;;;7.10;99.90;;;;;;10344658;28;20685;-76
2022/01/17 14:24:40;;;;;;;8.30;6.13;;;7.10;99.90;;;;;;10353475;28;20217;-75
2022/01/17 14:29:47;;;;;;;7.87;5.47;;;7.10;99.90;;;;;;10349488;28;20655;-77
2022/01/17 14:34:51;;;;;;;8.17;6.00;;;7.10;99.90;;;;;;10353603;28;20244;-75
2022/01/17 14:40:05;;;;;;;8.57;6.40;;;7.00;99.90;;;;;;10351639;28;20222;-75
2022/01/17 14:45:14;;;;;;;8.43;6.37;;;7.10;99.90;;;;;;10336333;28;20243;-75
2022/01/17 14:50:18;;;;;;;10.17;6.57;;;7.20;99.90;;;;;;10347537;28;20271;-75
2022/01/17 14:59:24;;;;;;;9.50;6.60;;;7.10;99.90;;;;;;10368659;28;20264;-75
2022/01/17 15:00:56;;;;;;;9.70;6.57;;;7.20;99.90;;;;;;10358281;28;20217;-75
2022/01/17 15:05:57;;;;;;;10.77;7.13;;;7.10;99.90;;;;;;10362101;28;20330;-76
2022/01/17 15:10:57;;;;;;;9.07;7.13;;;7.10;99.90;;;;;;10344694;28;20306;-76
2022/01/17 15:15:58;;;;;;;10.40;7.43;;;7.10;99.90;;;;;;10347148;28;20658;-76
2022/01/17 15:21:02;;;;;;;9.30;7.13;;;7.10;99.90;;;;;;10370216;28;20598;-76
2022/01/17 15:26:03;;;;;;;11.47;7.50;;;7.00;99.90;;;;;;10351469;28;20236;-74
2022/01/17 15:31:05;;;;;;;9.03;7.27;;;7.10;99.90;;;;;;10345407;28;20728;-77
2022/01/17 15:36:06;;;;;;;11.53;7.33;;;7.00;99.90;;;;;;10356488;28;20234;-76
2022/01/17 15:41:09;;;;;;;8.17;6.53;;;7.00;99.90;;;;;;10354523;28;20316;-76
2022/01/17 15:46:10;;;;;;;11.57;7.13;;;7.00;99.90;;;;;;10354974;28;20243;-75
2022/01/17 15:51:12;;;;;;;10.40;7.33;;;7.00;99.90;;;;;;10350513;28;20800;-75
2022/01/17 15:56:12;;;;;;;11.50;7.03;;;7.00;99.90;;;;;;10339897;28;20442;-75
2022/01/17 16:01:13;;;;;;;10.17;6.73;;;7.00;99.90;;;;;;10349829;28;20313;-75
2022/01/17 16:06:14;;;;;;;9.17;7.13;;;7.00;99.90;;;;;;10331255;28;20302;-75
2022/01/17 16:11:14;;;;;;;9.97;7.00;;;6.90;99.90;;;;;;10345566;28;20232;-76
2022/01/17 16:16:15;;;;;;;11.97;7.07;;;7.00;99.90;;;;;;10334854;28;20275;-76
2022/01/17 16:21:16;;;;;;;10.53;6.73;;;6.90;99.90;;;;;;10339485;28;20809;-76
2022/01/17 16:26:16;;;;;;;11.50;6.53;;;6.90;99.90;;;;;;10356223;28;20703;-76
2022/01/17 16:31:18;;;;;;;10.83;7.33;;;6.90;99.90;;;;;;10356363;28;20229;-76
2022/01/17 16:36:20;;;;;;;10.50;6.33;;;6.90;99.90;;;;;;10354065;28;20241;-75
2022/01/17 16:41:20;;;;;;;8.23;6.13;;;6.90;99.90;;;;;;10349243;28;20230;-76
2022/01/17 16:46:24;;;;;;;7.60;6.10;;;6.90;99.90;;;;;;10344124;28;20237;-76
2022/01/17 16:51:25;;;;;;;11.90;7.27;;;6.90;99.90;;;;;;10330390;28;20230;-74
2022/01/17 16:56:25;;;;;;;10.30;7.00;;;6.90;99.90;;;;;;10349329;28;20245;-75
2022/01/17 17:01:26;;;;;;;10.83;7.40;;;6.90;99.90;;;;;;10342788;28;20342;-76
2022/01/17 17:06:26;;;;;;;11.17;7.57;;;6.90;99.90;;;;;;10347279;28;20284;-74
2022/01/17 17:11:28;;;;;;;13.03;8.10;;;6.90;99.90;;;;;;10338598;28;20221;-76
2022/01/17 17:16:28;;;;;;;10.07;8.00;;;6.90;99.90;;;;;;10354316;28;20704;-74
2022/01/17 17:21:29;;;;;;;14.53;8.20;;;6.90;99.90;;;;;;10341327;28;20221;-75
2022/01/17 17:26:30;;;;;;;11.90;7.23;;;6.90;99.90;;;;;;10348345;28;20310;-75
2022/01/17 17:31:33;;;;;;;13.83;8.50;;;6.90;99.90;;;;;;10349751;28;20287;-76
2022/01/17 17:36:35;;;;;;;15.90;8.23;;;6.80;99.90;;;;;;10349372;28;20234;-75
2022/01/17 17:41:37;;;;;;;12.07;8.80;;;6.80;99.90;;;;;;10337750;28;20264;-75
2022/01/17 17:46:38;;;;;;;12.23;8.00;;;6.80;99.90;;;;;;10361771;28;20233;-77
2022/01/17 17:51:40;;;;;;;11.97;8.80;;;6.90;99.90;;;;;;10332482;28;20229;-75
2022/01/17 17:56:41;;;;;;;14.40;8.33;;;6.90;99.90;;;;;;10349512;28;20241;-75
2022/01/17 18:01:41;;;;;;;12.50;8.57;;;6.90;99.90;;;;;;10332347;28;20719;-75
2022/01/17 18:06:44;;;;;;;12.97;9.03;;;6.80;99.90;;;;;;10355568;28;20236;-75
2022/01/17 18:11:44;;;;;;;14.40;8.67;;;6.80;99.90;;;;;;10334127;28;20229;-76
2022/01/17 18:16:45;;;;;;;12.17;9.07;;;6.80;99.90;;;;;;10354761;28;20907;-75
2022/01/17 18:21:46;;;;;;;12.07;8.47;;;6.80;99.90;;;;;;10343467;28;20871;-76
2022/01/17 18:26:46;;;;;;;13.53;9.10;;;6.80;99.90;;;;;;10342245;28;20601;-76
2022/01/17 18:31:47;;;;;;;14.07;9.17;;;6.80;99.90;;;;;;10336500;28;20280;-76
2022/01/17 18:36:49;;;;;;;11.37;8.33;;;6.80;99.90;;;;;;10351056;28;20663;-76
2022/01/17 18:41:49;;;;;;;12.73;8.90;;;6.80;99.90;;;;;;10345026;28;20232;-76
2022/01/17 18:46:52;;;;;;;11.67;8.63;;;6.80;99.90;;;;;;10350895;28;20621;-76
2022/01/17 18:51:54;;;;;;;15.00;9.63;;;6.80;99.90;;;;;;10337450;28;20317;-76
2022/01/17 18:56:55;;;;;;;14.23;9.57;;;6.80;99.90;;;;;;10338906;28;20261;-76
2022/01/17 19:01:56;;;;;;;12.47;9.40;;;6.80;99.90;;;;;;10350400;28;20228;-76
2022/01/17 19:06:58;;;;;;;15.07;9.57;;;6.80;99.90;;;;;;10347244;28;20780;-75
2022/01/17 19:11:59;;;;;;;13.87;10.30;;;6.80;99.90;;;;;;10342284;28;20213;-77
2022/01/17 19:17:01;;;;;;;14.17;9.57;;;6.70;99.90;;;;;;10354651;28;20712;-76
2022/01/17 19:22:01;;;;;;;12.20;8.87;;;6.70;99.90;;;;;;10337149;28;20222;-75
2022/01/17 19:27:04;;;;;;;14.20;9.90;;;6.70;99.90;;;;;;10357753;28;20240;-75
2022/01/17 19:32:04;;;;;;;15.90;10.17;;;6.60;99.90;;;;;;10358668;28;20316;-76
2022/01/17 19:37:17;;;;;;;15.33;10.83;;;6.60;99.90;;;;;;10341962;28;20316;-76
2022/01/17 19:42:21;;;;;;;14.93;10.87;;;6.60;99.90;;;;;;10336794;28;20226;-77
2022/01/17 19:47:28;;;;;;;13.87;10.80;;;6.70;99.90;;;;;;10339657;28;20245;-76
2022/01/17 19:52:29;;;;;;;17.20;12.50;;;6.70;99.90;;;;;;10348257;28;20694;-76
2022/01/17 19:57:30;;;;;;;17.17;11.70;;;6.60;99.90;;;;;;10332562;28;20233;-76
2022/01/17 20:02:31;;;;;;;16.40;11.37;;;6.60;99.90;;;;;;10358427;28;20221;-75
2022/01/17 20:07:32;;;;;;;16.40;11.57;;;6.60;99.90;;;;;;10353905;28;20228;-76
2022/01/17 20:12:33;;;;;;;17.63;11.43;;;6.60;99.90;;;;;;10338008;28;20406;-76
2022/01/17 20:17:37;;;;;;;18.20;13.17;;;6.50;99.90;;;;;;10348924;28;20234;-76
2022/01/17 20:22:43;;;;;;;16.33;11.43;;;6.60;99.90;;;;;;10340749;28;20244;-77
2022/01/17 20:27:52;;;;;;;18.10;12.67;;;6.60;99.90;;;;;;10344833;28;20245;-76
2022/01/17 20:32:59;;;;;;;18.07;13.03;;;6.50;99.90;;;;;;10375909;28;20221;-77
2022/01/17 20:38:04;;;;;;;21.07;14.00;;;6.40;99.90;;;;;;10372453;28;20249;-76
2022/01/17 20:43:12;;;;;;;19.00;13.33;;;6.40;99.90;;;;;;10345185;28;20320;-77
2022/01/17 20:48:12;;;;;;;16.57;12.20;;;6.40;99.90;;;;;;10348836;28;20248;-76
2022/01/17 20:53:16;;;;;;;16.03;12.03;;;6.40;99.90;;;;;;10339342;28;20243;-77
2022/01/17 20:58:21;;;;;;;18.60;12.10;;;6.40;99.90;;;;;;10350114;28;20242;-77
2022/01/17 21:03:25;;;;;;;19.33;12.20;;;6.40;99.90;;;;;;10333700;28;20264;-77
2022/01/17 21:08:34;;;;;;;17.80;12.57;;;6.40;99.90;;;;;;10348263;28;20232;-77
2022/01/17 21:13:36;;;;;;;18.10;13.80;;;6.30;99.90;;;;;;10341550;28;20594;-76
2022/01/17 21:18:53;;;;;;;15.67;12.07;;;6.40;99.90;;;;;;10332806;28;20213;-76
2022/01/17 21:23:54;;;;;;;20.00;12.80;;;6.40;99.90;;;;;;10336696;28;20233;-76
2022/01/17 21:28:55;;;;;;;17.00;13.03;;;6.40;99.90;;;;;;10354878;28;20231;-76
2022/01/17 21:33:58;;;;;;;19.00;13.87;;;6.40;99.90;;;;;;10330820;28;20222;-76
2022/01/17 21:38:59;;;;;;;19.07;13.40;;;6.40;99.90;;;;;;10357853;28;20322;-76
2022/01/17 21:44:00;;;;;;;19.13;13.80;;;6.30;99.90;;;;;;10355171;28;20668;-76
2022/01/17 21:49:02;;;;;;;19.53;14.73;;;6.40;99.90;;;;;;10348134;28;20321;-76
2022/01/17 21:54:03;;;;;;;19.67;13.40;;;6.40;99.90;;;;;;10339986;28;20593;-76
2022/01/17 21:59:04;;;;;;;19.47;13.40;;;6.40;99.90;;;;;;10347588;28;20228;-77
2022/01/17 22:04:05;;;;;;;17.10;12.87;;;6.40;99.90;;;;;;10345889;28;20635;-76
2022/01/17 22:09:09;;;;;;;18.50;13.53;;;6.40;99.90;;;;;;10344136;28;20225;-76
2022/01/17 22:14:09;;;;;;;19.90;14.37;;;6.40;99.90;;;;;;10353761;28;20220;-77
2022/01/17 22:19:10;;;;;;;19.77;14.63;;;6.40;99.90;;;;;;10361767;28;20601;-74
2022/01/17 22:24:11;;;;;;;22.87;16.27;;;6.40;99.90;;;;;;10355807;28;20233;-71
2022/01/17 22:29:11;;;;;;;21.17;15.47;;;6.40;99.90;;;;;;10351754;28;20272;-72
2022/01/17 22:34:12;;;;;;;21.43;14.70;;;6.40;99.90;;;;;;10366155;28;20256;-74
2022/01/17 22:39:13;;;;;;;23.53;16.93;;;6.30;99.90;;;;;;10336603;28;20234;-74
2022/01/17 22:44:14;;;;;;;22.50;15.80;;;6.30;99.90;;;;;;10351946;28;20224;-74
2022/01/17 22:49:15;;;;;;;22.63;15.47;;;6.30;99.90;;;;;;10341965;28;20225;-76
2022/01/17 22:54:16;;;;;;;21.50;15.80;;;6.30;99.90;;;;;;10344938;28;20217;-75
2022/01/17 22:59:16;;;;;;;20.47;14.67;;;6.30;99.90;;;;;;10365962;28;20348;-74
2022/01/17 23:04:17;;;;;;;20.13;14.87;;;6.30;99.90;;;;;;10361890;28;20585;-76
2022/01/17 23:09:20;;;;;;;18.97;14.80;;;6.40;99.90;;;;;;10337709;28;20229;-75
2022/01/17 23:14:24;;;;;;;21.77;15.07;;;6.40;99.90;;;;;;10357547;28;20670;-76
2022/01/17 23:19:53;;;;;;;20.70;15.23;;;6.40;99.90;;;;;;10364217;28;20313;-79
2022/01/17 23:30:41;;;;;;;21.13;14.70;;;6.30;99.90;;;;;;10357727;28;20229;-78
2022/01/17 23:35:54;;;;;;;19.57;14.60;;;6.40;99.90;;;;;;10347354;28;20731;-78
2022/01/17 23:41:02;;;;;;;21.80;15.13;;;6.30;99.90;;;;;;10329857;28;20712;-76
2022/01/17 23:46:06;;;;;;;22.33;14.73;;;6.40;99.90;;;;;;10360846;28;20232;-77
2022/01/17 23:56:33;;;;;;;23.67;14.33;;;6.40;99.90;;;;;;9568771;26;20235;-78
